Steele, North Dakota
Current Conditions -  °F | °C
As of 3:52 PM on Monday 24 Nov 2014 (Local Time) from KBIS Reporting Station
Clear Clear  
Wind Chill: 16°   Ceiling: Unl
Heat Index: 26°   Visibility: 10mi
Dew Point:   Wind: 12mph
Humidity: 37%   Direction: 330°NNW
Pressure: 29.98"   Gusts: NA
Location:  46.85°N, 99.92°W
Report Text: KBIS 242152Z 33010KT 10SM CLR M03/M16 A2998 RMK AO2 SLP182 T10331161
Loading
Personal Weather Stations






























Interactive Weather Map New forecast layout! Learn more

10-Day Weather Forecast

Advertisements
Track Severe Weather on mobile